Lewistown, Illinois
Current Conditions -  °F | °C
As of 1:55 PM on Saturday 25 Oct 2014 (Local Time) from KMQB Reporting Station
Haze Haze  
Wind Chill: 74°   Ceiling: 700
Heat Index: 74°   Visibility: 1.2mi
Dew Point: 42°   Wind: 8mph
Humidity: 31%   Direction: 350°N
Pressure: 30.04"   Gusts: NA
Location:  40.39°N, 90.15°W
Report Text: KMQB 251855Z AUTO 35007KT 1 1/4SM HZ VV007 24/06 A3004 RMK AO2 T02360057
Loading
Personal Weather Stations






























Interactive Weather Map
Tropical Storm Tracking
New forecast layout! Learn more

10-Day Weather Forecast

Advertisements
Track Severe Weather on mobile